createdAt,value
2022-10-22T00:01:20.153Z,3.58
2022-10-22T00:03:46.772Z,2.38
2022-10-22T00:06:13.523Z,7.60
2022-10-22T00:08:40.261Z,8.18
2022-10-22T00:11:17.741Z,7.00
2022-10-22T00:16:17.085Z,5.60
2022-10-22T00:18:43.776Z,7.10
2022-10-22T00:21:10.409Z,4.05
2022-10-22T00:23:40.741Z,4.22
2022-10-22T00:26:07.396Z,3.75
2022-10-22T00:28:34.076Z,3.00
2022-10-22T00:31:01.614Z,2.80
2022-10-22T00:33:29.366Z,2.42
2022-10-22T00:35:55.989Z,2.38
2022-10-22T00:38:22.654Z,2.35
2022-10-22T00:40:49.522Z,2.30
2022-10-22T00:43:18.662Z,2.47
2022-10-22T00:45:45.705Z,2.22
2022-10-22T00:48:16.321Z,2.42
2022-10-22T00:51:00.411Z,2.38
2022-10-22T00:53:31.976Z,2.45
2022-10-22T00:55:58.803Z,1.90
2022-10-22T00:58:28.868Z,2.78
2022-10-22T01:00:56.797Z,2.70
2022-10-22T01:03:23.581Z,2.33
2022-10-22T01:05:58.128Z,2.50
2022-10-22T01:08:39.627Z,2.63
2022-10-22T01:11:29.249Z,2.70
2022-10-22T01:14:16.984Z,2.70
2022-10-22T01:19:43.789Z,2.47
2022-10-22T01:22:28.646Z,2.88
2022-10-22T01:25:21.442Z,3.05
2022-10-22T01:28:06.806Z,2.03
2022-10-22T01:30:34.408Z,2.67
2022-10-22T01:33:03.954Z,2.15
2022-10-22T01:35:37.617Z,2.53
2022-10-22T01:38:06.921Z,2.13
2022-10-22T01:43:02.741Z,2.70
2022-10-22T01:45:32.882Z,2.42
2022-10-22T01:48:27.468Z,2.45
2022-10-22T01:51:19.156Z,1.92
2022-10-22T01:54:21.170Z,2.35
2022-10-22T01:56:56.464Z,1.50
2022-10-22T01:59:44.239Z,3.08
2022-10-22T02:05:07.340Z,1.90
2022-10-22T02:07:43.953Z,1.75
2022-10-22T02:10:11.024Z,1.70
2022-10-22T02:12:39.340Z,1.55
2022-10-22T02:15:06.785Z,1.77
2022-10-22T02:17:35.205Z,1.70
2022-10-22T02:20:07.398Z,2.00
2022-10-22T02:22:34.283Z,2.42
2022-10-22T02:25:01.000Z,1.92
2022-10-22T02:27:37.926Z,1.92
2022-10-22T02:30:11.893Z,1.40
2022-10-22T02:32:52.195Z,1.75
2022-10-22T02:35:21.932Z,16.23
2022-10-22T02:37:49.557Z,2.60
2022-10-22T02:40:17.037Z,2.20
2022-10-22T02:42:44.233Z,2.03
2022-10-22T02:45:10.880Z,2.13
2022-10-22T02:47:37.499Z,2.10
2022-10-22T02:50:07.868Z,1.88
2022-10-22T02:52:37.120Z,1.90
2022-10-22T02:55:05.460Z,2.00
2022-10-22T02:57:32.500Z,1.95
2022-10-22T02:59:59.117Z,1.85
2022-10-22T03:02:25.760Z,1.63
2022-10-22T03:04:52.364Z,2.20
2022-10-22T03:07:19.015Z,3.70
2022-10-22T03:09:45.688Z,1.90
2022-10-22T03:12:12.288Z,2.10
2022-10-22T03:14:38.936Z,1.77
2022-10-22T03:17:05.563Z,2.00
2022-10-22T03:19:32.353Z,2.50
2022-10-22T03:22:28.227Z,2.13
2022-10-22T03:24:58.361Z,1.58
2022-10-22T03:27:25.610Z,1.85
2022-10-22T03:29:52.536Z,2.95
2022-10-22T03:32:19.312Z,2.30
2022-10-22T03:34:46.034Z,2.70
2022-10-22T03:37:12.833Z,2.50
2022-10-22T03:39:39.907Z,2.72
2022-10-22T03:42:07.268Z,1.90
2022-10-22T03:44:38.261Z,2.25
2022-10-22T03:47:05.361Z,1.92
2022-10-22T03:49:32.169Z,1.90
2022-10-22T03:51:58.808Z,7.45
2022-10-22T03:54:25.482Z,13.55
2022-10-22T03:56:52.156Z,2.85
2022-10-22T03:59:19.072Z,5.20
2022-10-22T04:01:45.685Z,3.78
2022-10-22T04:04:12.357Z,3.30
2022-10-22T04:06:39.006Z,2.97
2022-10-22T04:09:05.808Z,2.92
2022-10-22T04:11:32.557Z,3.63
2022-10-22T04:13:59.198Z,2.00
2022-10-22T04:16:30.977Z,2.67
2022-10-22T04:18:58.069Z,2.08
2022-10-22T04:21:24.878Z,3.70
2022-10-22T04:23:52.860Z,4.18
2022-10-22T04:26:20.464Z,5.00
2022-10-22T04:28:48.305Z,4.20
2022-10-22T04:31:19.908Z,2.70
2022-10-22T04:33:47.268Z,4.65
2022-10-22T04:36:16.569Z,2.80
2022-10-22T04:41:15.571Z,2.72
2022-10-22T04:43:42.940Z,2.55
2022-10-22T04:46:10.163Z,2.15
2022-10-22T04:48:38.111Z,2.92
2022-10-22T04:51:06.760Z,3.35
2022-10-22T04:53:35.631Z,2.13
2022-10-22T04:56:12.699Z,4.30
2022-10-22T04:58:39.689Z,2.40
2022-10-22T05:01:28.677Z,2.15
2022-10-22T05:03:57.726Z,3.40
2022-10-22T05:06:25.168Z,2.28
2022-10-22T05:09:00.202Z,2.65
2022-10-22T05:11:29.895Z,2.45
2022-10-22T05:13:57.427Z,7.88
2022-10-22T05:16:24.656Z,6.05
2022-10-22T05:18:51.406Z,2.45
2022-10-22T05:21:20.531Z,3.85
2022-10-22T05:28:42.390Z,3.92
2022-10-22T05:31:11.444Z,4.20
2022-10-22T05:33:38.588Z,4.43
2022-10-22T05:36:07.310Z,3.75
2022-10-22T05:38:35.310Z,5.38
2022-10-22T05:41:01.892Z,4.28
2022-10-22T05:43:28.992Z,3.30
2022-10-22T05:45:55.751Z,3.75
2022-10-22T05:48:22.453Z,2.58
2022-10-22T05:50:50.938Z,2.42
2022-10-22T05:53:20.747Z,3.35
2022-10-22T05:55:47.392Z,2.53
2022-10-22T05:58:14.579Z,2.03
2022-10-22T06:00:41.538Z,2.55
2022-10-22T06:03:08.169Z,2.63
2022-10-22T06:05:36.417Z,2.67
2022-10-22T06:08:03.457Z,2.38
2022-10-22T06:10:30.494Z,2.85
2022-10-22T06:12:57.117Z,2.95
2022-10-22T06:15:23.845Z,2.72
2022-10-22T06:17:50.493Z,2.80
2022-10-22T06:20:17.586Z,2.55
2022-10-22T06:22:44.297Z,4.18
2022-10-22T06:25:12.588Z,3.35
2022-10-22T06:27:39.264Z,3.00
2022-10-22T06:30:06.724Z,6.03
2022-10-22T06:32:33.383Z,4.65
2022-10-22T06:35:00.203Z,3.88
2022-10-22T06:37:26.847Z,4.00
2022-10-22T06:39:53.493Z,3.15
2022-10-22T06:42:20.109Z,2.83
2022-10-22T06:44:46.790Z,2.75
2022-10-22T06:47:13.457Z,2.17
2022-10-22T06:49:40.065Z,1.92
2022-10-22T06:52:06.717Z,2.20
2022-10-22T06:54:33.457Z,2.28
2022-10-22T06:57:00.120Z,2.47
2022-10-22T06:59:26.751Z,2.38
2022-10-22T07:01:53.416Z,2.58
2022-10-22T07:04:20.033Z,2.30
2022-10-22T07:06:46.672Z,2.10
2022-10-22T07:09:13.635Z,2.08
2022-10-22T07:11:42.942Z,3.17
2022-10-22T07:14:10.156Z,2.47
2022-10-22T07:16:37.844Z,9.38
2022-10-22T07:19:05.387Z,1.92
2022-10-22T07:21:32.557Z,2.25
2022-10-22T07:23:59.558Z,1.63
2022-10-22T07:26:28.518Z,2.38
2022-10-22T07:28:55.218Z,2.25
2022-10-22T07:31:21.880Z,2.70
2022-10-22T07:33:48.554Z,1.98
2022-10-22T07:36:17.980Z,3.25
2022-10-22T07:38:46.500Z,2.20
2022-10-22T07:41:14.765Z,1.85
2022-10-22T07:43:41.529Z,2.15
2022-10-22T07:46:09.020Z,4.03
2022-10-22T07:48:36.467Z,2.45
2022-10-22T07:51:03.403Z,1.58
2022-10-22T07:53:30.230Z,4.78
2022-10-22T07:55:57.050Z,2.67
2022-10-22T07:58:24.200Z,2.22
2022-10-22T08:00:51.570Z,3.67
2022-10-22T08:03:18.833Z,1.92
2022-10-22T08:05:46.019Z,3.03
2022-10-22T08:08:14.544Z,2.95
2022-10-22T08:10:41.451Z,1.67
2022-10-22T08:13:08.680Z,2.10
2022-10-22T08:15:35.971Z,2.30
2022-10-22T08:18:02.628Z,2.50
2022-10-22T08:20:29.270Z,2.40
2022-10-22T08:22:55.972Z,2.38
2022-10-22T08:25:22.605Z,2.55
2022-10-22T08:27:49.335Z,2.85
2022-10-22T08:30:16.155Z,2.67
2022-10-22T08:32:42.909Z,2.35
2022-10-22T08:35:11.129Z,2.75
2022-10-22T08:37:39.702Z,2.20
2022-10-22T08:40:07.100Z,2.30
2022-10-22T08:42:52.430Z,2.08
2022-10-22T08:45:41.515Z,2.00
2022-10-22T08:48:34.672Z,2.20
2022-10-22T08:51:01.301Z,2.38
2022-10-22T08:53:32.637Z,2.20
2022-10-22T08:55:59.278Z,2.20
2022-10-22T08:58:34.982Z,2.15
2022-10-22T09:01:23.343Z,1.73
2022-10-22T09:03:58.954Z,3.00
2022-10-22T09:06:28.046Z,2.20
2022-10-22T09:08:55.577Z,2.30
2022-10-22T09:11:38.772Z,2.15
2022-10-22T09:14:05.968Z,2.10
2022-10-22T09:16:55.735Z,2.72
2022-10-22T09:20:05.776Z,2.10
2022-10-22T09:22:43.456Z,2.28
2022-10-22T09:25:24.435Z,2.83
2022-10-22T09:27:52.708Z,2.25
2022-10-22T09:30:22.370Z,2.20
2022-10-22T09:33:00.256Z,2.05
2022-10-22T09:35:27.016Z,2.10
2022-10-22T09:37:56.252Z,2.40
2022-10-22T09:40:23.876Z,2.25
2022-10-22T09:42:50.549Z,2.70
2022-10-22T09:45:26.520Z,2.45
2022-10-22T09:48:18.561Z,3.38
2022-10-22T09:50:49.951Z,2.83
2022-10-22T09:53:41.888Z,2.90
2022-10-22T09:56:21.747Z,2.13
2022-10-22T09:58:51.291Z,2.25
2022-10-22T10:01:20.672Z,2.58
2022-10-22T10:03:49.249Z,2.22
2022-10-22T10:06:22.675Z,2.33
2022-10-22T10:08:50.038Z,2.53
2022-10-22T10:11:30.002Z,2.30
2022-10-22T10:14:17.903Z,2.70
2022-10-22T10:16:59.770Z,2.53
2022-10-22T10:20:17.300Z,2.90
2022-10-22T10:23:02.287Z,3.00
2022-10-22T10:25:36.192Z,2.80
2022-10-22T10:28:21.714Z,2.85
2022-10-22T10:30:56.712Z,2.85
2022-10-22T10:33:32.264Z,2.40
2022-10-22T10:36:16.721Z,2.38
2022-10-22T10:38:52.472Z,2.00
2022-10-22T10:41:28.091Z,2.85
2022-10-22T10:44:22.250Z,2.60
2022-10-22T10:47:05.591Z,2.47
2022-10-22T10:49:35.171Z,3.83
2022-10-22T10:52:25.363Z,3.22
2022-10-22T10:55:09.829Z,2.63
2022-10-22T10:57:47.340Z,3.15
2022-10-22T11:00:22.361Z,2.63
2022-10-22T11:03:07.638Z,2.85
2022-10-22T11:06:06.300Z,3.20
2022-10-22T11:09:21.056Z,2.83
2022-10-22T11:11:50.924Z,2.90
2022-10-22T11:14:34.285Z,3.67
2022-10-22T11:17:16.928Z,6.20
2022-10-22T11:20:05.269Z,3.03
2022-10-22T11:23:17.516Z,3.75
2022-10-22T11:25:42.917Z,4.18
2022-10-22T11:28:13.328Z,5.03
2022-10-22T11:30:43.310Z,3.70
2022-10-22T11:33:12.652Z,3.50
2022-10-22T11:35:41.502Z,2.65
2022-10-22T11:38:12.632Z,3.50
2022-10-22T11:41:03.643Z,2.90
2022-10-22T11:43:31.880Z,2.75
2022-10-22T11:46:25.824Z,3.05
2022-10-22T11:49:06.559Z,3.15
2022-10-22T11:51:37.854Z,2.88
2022-10-22T11:54:29.337Z,2.80
2022-10-22T11:57:24.376Z,2.65
2022-10-22T11:59:58.109Z,2.70
2022-10-22T12:02:43.698Z,2.80
2022-10-22T12:05:22.717Z,3.00
2022-10-22T12:08:15.919Z,3.70
2022-10-22T12:11:11.912Z,3.00
2022-10-22T12:14:12.271Z,3.63
2022-10-22T12:16:55.640Z,3.22
2022-10-22T12:19:23.049Z,3.45
2022-10-22T12:21:54.646Z,3.50
2022-10-22T12:24:23.969Z,3.35
2022-10-22T12:26:52.751Z,3.55
2022-10-22T12:29:23.751Z,3.60
2022-10-22T12:31:50.527Z,3.50
2022-10-22T12:34:19.617Z,2.70
2022-10-22T12:36:47.499Z,3.00
2022-10-22T12:39:27.479Z,3.10
2022-10-22T12:41:55.070Z,2.90
2022-10-22T12:44:21.913Z,3.30
2022-10-22T12:46:52.951Z,2.88
2022-10-22T12:49:25.925Z,2.70
2022-10-22T12:51:52.774Z,3.05
2022-10-22T12:54:26.520Z,2.65
2022-10-22T12:56:54.415Z,3.50
2022-10-22T12:59:27.002Z,3.40
2022-10-22T13:01:54.492Z,2.38
2022-10-22T13:04:28.504Z,2.72
2022-10-22T13:07:19.739Z,3.13
2022-10-22T13:09:58.340Z,2.85
2022-10-22T13:12:26.764Z,3.17
2022-10-22T13:14:53.516Z,3.35
2022-10-22T13:17:39.453Z,3.05
2022-10-22T13:20:18.321Z,2.50
2022-10-22T13:23:02.816Z,3.22
2022-10-22T13:25:34.466Z,3.00
2022-10-22T13:28:10.775Z,3.67
2022-10-22T13:30:38.647Z,3.20
2022-10-22T13:33:17.787Z,3.60
2022-10-22T13:35:44.435Z,2.75
2022-10-22T13:38:15.943Z,2.60
2022-10-22T13:40:42.589Z,2.45
2022-10-22T13:43:09.193Z,2.40
2022-10-22T13:45:35.872Z,2.50
2022-10-22T13:48:03.333Z,2.90
2022-10-22T13:50:29.997Z,2.40
2022-10-22T13:52:58.400Z,2.60
2022-10-22T13:55:30.282Z,2.83
2022-10-22T13:58:01.056Z,2.63
2022-10-22T14:00:27.795Z,3.00
2022-10-22T14:02:57.617Z,2.38
2022-10-22T14:05:24.296Z,4.53
2022-10-22T14:07:51.520Z,3.17
2022-10-22T14:10:25.048Z,2.47
2022-10-22T14:12:55.764Z,2.42
2022-10-22T14:15:24.340Z,2.28
2022-10-22T14:17:57.007Z,2.78
2022-10-22T14:20:28.380Z,2.80
2022-10-22T14:22:55.505Z,2.90
2022-10-22T14:25:24.616Z,2.85
2022-10-22T14:30:20.903Z,2.30
2022-10-22T14:32:48.931Z,2.80
2022-10-22T14:35:21.078Z,2.90
2022-10-22T14:37:48.310Z,2.75
2022-10-22T14:40:17.201Z,2.83
2022-10-22T14:42:45.936Z,2.72
2022-10-22T14:45:24.217Z,2.80
2022-10-22T14:47:51.913Z,2.83
2022-10-22T14:50:19.031Z,5.60
2022-10-22T14:52:45.743Z,3.00
2022-10-22T14:55:14.925Z,3.60
2022-10-22T14:57:42.784Z,3.00
2022-10-22T15:00:13.264Z,2.97
2022-10-22T15:02:40.223Z,3.17
2022-10-22T15:05:07.783Z,3.28
2022-10-22T15:07:34.940Z,3.50
2022-10-22T15:10:01.840Z,2.55
2022-10-22T15:12:28.463Z,3.53
2022-10-22T15:14:55.121Z,2.95
2022-10-22T15:17:21.875Z,3.80
2022-10-22T15:19:48.537Z,4.07
2022-10-22T15:22:15.906Z,4.30
2022-10-22T15:24:45.644Z,4.55
2022-10-22T15:27:15.264Z,4.78
2022-10-22T15:29:42.928Z,3.47
2022-10-22T15:32:13.515Z,4.32
2022-10-22T15:34:40.873Z,3.67
2022-10-22T15:37:10.617Z,3.50
2022-10-22T15:39:40.690Z,3.47
2022-10-22T15:42:07.691Z,2.70
2022-10-22T15:44:34.496Z,3.70
2022-10-22T15:47:03.727Z,3.10
2022-10-22T15:49:30.519Z,3.17
2022-10-22T15:51:57.218Z,3.25
2022-10-22T15:54:28.630Z,4.35
2022-10-22T15:56:56.467Z,4.97
2022-10-22T15:59:23.351Z,4.05
2022-10-22T16:01:50.130Z,4.97
2022-10-22T16:04:16.906Z,7.30
2022-10-22T16:06:48.662Z,4.20
2022-10-22T16:09:23.208Z,3.80
2022-10-22T16:11:50.868Z,9.10
2022-10-22T16:14:20.286Z,3.20
2022-10-22T16:16:53.779Z,4.45
2022-10-22T16:19:23.123Z,3.75
2022-10-22T16:21:51.513Z,4.18
2022-10-22T16:24:18.556Z,3.92
2022-10-22T16:26:45.549Z,5.68
2022-10-22T16:29:12.703Z,4.00
2022-10-22T16:31:40.872Z,4.90
2022-10-22T16:34:07.839Z,5.75
2022-10-22T16:36:36.270Z,6.65
2022-10-22T16:39:03.667Z,6.38
2022-10-22T16:41:35.268Z,7.90
2022-10-22T16:44:05.617Z,3.92
2022-10-22T16:46:33.476Z,4.55
2022-10-22T16:49:00.352Z,4.93
2022-10-22T16:51:27.949Z,4.70
2022-10-22T16:53:56.454Z,3.47
2022-10-22T16:56:23.833Z,4.28
2022-10-22T16:58:55.668Z,4.57
2022-10-22T17:01:26.449Z,5.05
2022-10-22T17:03:54.819Z,3.65
2022-10-22T17:06:22.508Z,4.68
2022-10-22T17:08:49.277Z,3.70
2022-10-22T17:11:19.039Z,5.13
2022-10-22T17:13:48.746Z,7.30
2022-10-22T17:16:17.084Z,9.30
2022-10-22T17:21:18.967Z,9.40
2022-10-22T17:23:46.199Z,8.15
2022-10-22T17:26:21.027Z,6.47
2022-10-22T17:28:48.628Z,3.95
2022-10-22T17:31:17.273Z,6.63
2022-10-22T17:33:44.229Z,6.20
2022-10-22T17:36:13.062Z,6.97
2022-10-22T17:38:41.094Z,8.65
2022-10-22T17:41:12.555Z,7.95
2022-10-22T17:43:41.538Z,7.47
2022-10-22T17:46:13.056Z,6.28
2022-10-22T17:48:39.789Z,4.28
2022-10-22T17:51:07.958Z,6.40
2022-10-22T17:53:34.804Z,6.03
2022-10-22T17:56:02.672Z,7.00
2022-10-22T17:58:30.365Z,6.78
2022-10-22T18:00:58.011Z,5.90
2022-10-22T18:03:24.929Z,6.07
2022-10-22T18:05:51.643Z,6.55
2022-10-22T18:08:18.303Z,9.60
2022-10-22T18:10:44.952Z,7.07
2022-10-22T18:13:11.988Z,7.75
2022-10-22T18:15:38.597Z,6.15
2022-10-22T18:18:05.325Z,9.70
2022-10-22T18:20:32.140Z,8.63
2022-10-22T18:22:58.852Z,5.82
2022-10-22T18:25:25.535Z,5.20
2022-10-22T18:27:52.237Z,5.28
2022-10-22T18:30:18.843Z,6.50
2022-10-22T18:32:45.496Z,8.00
2022-10-22T18:35:12.161Z,5.88
2022-10-22T18:37:40.020Z,5.10
2022-10-22T18:40:08.819Z,5.47
2022-10-22T18:42:39.675Z,4.85
2022-10-22T18:45:07.377Z,4.20
2022-10-22T18:47:33.980Z,5.82
2022-10-22T18:50:00.590Z,5.18
2022-10-22T18:52:27.217Z,5.15
2022-10-22T18:55:12.700Z,4.43
2022-10-22T18:57:39.369Z,4.15
2022-10-22T19:00:06.816Z,3.33
2022-10-22T19:02:33.438Z,3.80
2022-10-22T19:05:00.159Z,8.15
2022-10-22T19:07:26.845Z,5.72
2022-10-22T19:09:53.509Z,4.57
2022-10-22T19:12:21.665Z,4.95
2022-10-22T19:14:48.997Z,4.22
2022-10-22T19:17:15.705Z,3.95
2022-10-22T19:19:44.745Z,3.38
2022-10-22T19:22:11.363Z,4.22
2022-10-22T19:24:38.124Z,4.45
2022-10-22T19:27:04.797Z,6.18
2022-10-22T19:29:31.423Z,3.78
2022-10-22T19:31:58.261Z,4.13
2022-10-22T19:34:24.926Z,7.10
2022-10-22T19:36:51.965Z,4.50
2022-10-22T19:39:18.764Z,3.80
2022-10-22T19:41:45.586Z,4.68
2022-10-22T19:44:12.287Z,7.15
2022-10-22T19:46:38.970Z,4.53
2022-10-22T19:49:05.686Z,5.20
2022-10-22T19:51:35.926Z,4.45
2022-10-22T19:54:08.919Z,4.70
2022-10-22T19:56:37.716Z,5.82
2022-10-22T19:59:05.242Z,5.53
2022-10-22T20:01:32.112Z,5.72
2022-10-22T20:03:58.912Z,6.25
2022-10-22T20:06:25.593Z,6.40
2022-10-22T20:08:55.294Z,9.57
2022-10-22T20:11:25.910Z,7.43
2022-10-22T20:13:52.896Z,10.05
2022-10-22T20:16:25.428Z,6.40
2022-10-22T20:18:52.999Z,8.85
2022-10-22T20:21:20.507Z,6.75
2022-10-22T20:23:48.356Z,9.15
2022-10-22T20:26:15.101Z,8.32
2022-10-22T20:28:41.753Z,7.45
2022-10-22T20:31:10.693Z,7.28
2022-10-22T20:33:37.429Z,7.55
2022-10-22T20:36:06.844Z,7.20
2022-10-22T20:38:33.725Z,6.63
2022-10-22T20:41:01.328Z,7.82
2022-10-22T20:43:28.043Z,9.57
2022-10-22T20:45:54.791Z,7.97
2022-10-22T20:48:22.499Z,7.72
2022-10-22T20:50:49.179Z,6.80
2022-10-22T20:53:16.910Z,6.35
2022-10-22T20:55:43.671Z,7.55
2022-10-22T20:58:10.451Z,6.90
2022-10-22T21:00:39.365Z,7.05
2022-10-22T21:03:07.085Z,6.78
2022-10-22T21:05:34.754Z,6.93
2022-10-22T21:08:02.313Z,15.40
2022-10-22T21:10:32.443Z,25.92
2022-10-22T21:12:59.963Z,8.65
2022-10-22T21:15:27.777Z,9.15
2022-10-22T21:17:54.633Z,9.65
2022-10-22T21:20:23.916Z,15.63
2022-10-22T21:22:51.908Z,9.77
2022-10-22T21:25:18.591Z,10.82
2022-10-22T21:27:45.235Z,8.80
2022-10-22T21:30:12.892Z,9.85
2022-10-22T21:32:39.776Z,9.77
2022-10-22T21:35:06.844Z,10.48
2022-10-22T21:37:35.193Z,9.77
2022-10-22T21:40:03.840Z,10.18
2022-10-22T21:42:30.662Z,10.30
2022-10-22T21:44:57.448Z,9.90
2022-10-22T21:47:24.199Z,8.63
2022-10-22T21:49:51.009Z,8.88
2022-10-22T21:52:17.660Z,12.45
2022-10-22T21:54:44.302Z,7.75
2022-10-22T21:57:10.993Z,8.23
2022-10-22T21:59:38.288Z,10.45
2022-10-22T22:02:05.937Z,8.43
2022-10-22T22:04:32.838Z,7.65
2022-10-22T22:06:59.462Z,7.88
2022-10-22T22:09:26.250Z,7.88
2022-10-22T22:11:52.880Z,8.38
2022-10-22T22:14:19.611Z,7.93
2022-10-22T22:16:46.233Z,8.25
2022-10-22T22:19:12.964Z,8.63
2022-10-22T22:21:41.039Z,7.93
2022-10-22T22:24:09.228Z,8.00
2022-10-22T22:26:36.477Z,7.55
2022-10-22T22:29:03.307Z,8.32
2022-10-22T22:31:32.367Z,7.70
2022-10-22T22:34:13.616Z,7.38
2022-10-22T22:36:42.650Z,7.70
2022-10-22T22:39:12.880Z,9.60
2022-10-22T22:41:40.172Z,7.63
2022-10-22T22:44:06.855Z,7.47
2022-10-22T22:46:33.969Z,7.60
2022-10-22T22:49:00.635Z,7.28
2022-10-22T22:51:27.284Z,7.82
2022-10-22T22:53:54.191Z,7.88
2022-10-22T22:56:23.752Z,7.40
2022-10-22T22:58:50.638Z,7.60
2022-10-22T23:01:19.260Z,8.15
2022-10-22T23:03:48.361Z,7.53
2022-10-22T23:06:15.700Z,7.82
2022-10-22T23:08:42.771Z,7.88
2022-10-22T23:11:12.705Z,7.63
2022-10-22T23:13:40.217Z,7.75
2022-10-22T23:16:18.246Z,7.85
2022-10-22T23:18:45.963Z,8.05
2022-10-22T23:21:15.193Z,7.75
2022-10-22T23:23:53.230Z,8.05
2022-10-22T23:26:25.295Z,7.80
2022-10-22T23:28:52.076Z,7.15
2022-10-22T23:31:20.116Z,7.20
2022-10-22T23:33:46.810Z,7.80
2022-10-22T23:36:14.098Z,6.88
2022-10-22T23:38:41.404Z,6.75
2022-10-22T23:41:08.656Z,7.65
2022-10-22T23:43:38.668Z,8.38
2022-10-22T23:46:06.467Z,7.80
2022-10-22T23:48:33.364Z,7.75
2022-10-22T23:51:07.877Z,8.45
2022-10-22T23:53:34.540Z,8.18
2022-10-22T23:56:10.887Z,8.48
2022-10-22T23:58:39.260Z,8.63
